createdAt,value
2022-11-01T00:04:37.753Z,11.90
2022-11-01T00:09:32.246Z,11.70
2022-11-01T00:29:12.297Z,11.80
2022-11-01T00:36:35.337Z,11.80
2022-11-01T00:41:29.950Z,12.10
2022-11-01T01:13:26.096Z,14.20
2022-11-01T01:25:42.803Z,14.20
2022-11-01T01:28:10.452Z,14.20
2022-11-01T01:30:41.105Z,14.50
2022-11-01T01:47:55.597Z,14.50
2022-11-01T01:50:33.915Z,14.60
2022-11-01T01:53:28.423Z,14.60
2022-11-01T01:56:08.724Z,14.70
2022-11-01T01:58:51.679Z,14.70
2022-11-01T02:08:47.791Z,14.30
2022-11-01T02:11:15.842Z,14.20
2022-11-01T02:16:36.638Z,13.80
2022-11-01T02:19:15.249Z,14.00
2022-11-01T02:22:01.363Z,14.00
2022-11-01T02:25:13.460Z,14.00
2022-11-01T02:30:15.001Z,13.00
2022-11-01T02:33:15.463Z,14.00
2022-11-01T02:35:53.218Z,14.10
2022-11-01T02:38:38.129Z,13.90
2022-11-01T02:43:42.285Z,13.80
2022-11-01T02:46:28.398Z,13.70
2022-11-01T02:48:57.795Z,13.60
2022-11-01T02:51:26.670Z,13.50
2022-11-01T02:56:22.661Z,13.50
2022-11-01T02:58:51.983Z,13.60
2022-11-01T03:01:25.343Z,13.80
2022-11-01T03:03:57.146Z,14.10
2022-11-01T03:06:33.835Z,14.20
2022-11-01T03:09:04.756Z,14.40
2022-11-01T03:11:54.039Z,14.40
2022-11-01T03:14:38.447Z,14.40
2022-11-01T03:17:27.561Z,14.40
2022-11-01T03:20:20.111Z,14.40
2022-11-01T03:22:52.503Z,14.60
2022-11-01T03:25:39.773Z,14.60
2022-11-01T03:28:21.682Z,14.70
2022-11-01T03:31:02.254Z,14.70
2022-11-01T03:33:31.452Z,14.80
2022-11-01T03:36:03.596Z,14.90
2022-11-01T03:38:35.818Z,14.60
2022-11-01T03:41:06.228Z,14.90
2022-11-01T03:43:35.654Z,14.90
2022-11-01T04:05:42.736Z,14.90
2022-11-01T04:08:11.405Z,14.80
2022-11-01T04:21:18.987Z,15.10
2022-11-01T04:23:46.726Z,14.40
2022-11-01T04:26:19.617Z,15.10
2022-11-01T04:38:50.181Z,15.50
2022-11-01T04:41:19.327Z,15.40
2022-11-01T04:43:47.546Z,15.30
2022-11-01T04:53:37.233Z,15.20
2022-11-01T04:56:06.171Z,15.10
2022-11-01T04:58:34.408Z,12.50
2022-11-01T05:01:06.297Z,15.30
2022-11-01T05:03:33.838Z,15.10
2022-11-01T05:08:28.443Z,15.40
2022-11-01T05:10:56.411Z,15.20
2022-11-01T05:13:24.052Z,15.30
2022-11-01T05:26:02.296Z,15.20
2022-11-01T05:30:58.940Z,14.90
2022-11-01T05:53:10.261Z,15.20
2022-11-01T06:00:34.275Z,15.10
2022-11-01T06:03:19.178Z,14.80
2022-11-01T06:23:09.933Z,15.20
2022-11-01T06:33:04.093Z,15.10
2022-11-01T06:38:06.793Z,15.30
2022-11-01T06:40:35.161Z,15.00
2022-11-01T06:43:03.952Z,15.30
2022-11-01T06:45:32.437Z,15.40
2022-11-01T06:47:59.709Z,15.40
2022-11-01T06:52:57.432Z,15.40
2022-11-01T06:57:57.363Z,15.40
2022-11-01T07:00:25.541Z,15.60
2022-11-01T07:02:59.582Z,15.60
2022-11-01T07:10:28.738Z,16.30
2022-11-01T07:13:00.185Z,15.80
2022-11-01T07:15:28.290Z,15.90
2022-11-01T07:18:00.964Z,15.90
2022-11-01T07:20:29.938Z,16.40
2022-11-01T07:23:02.022Z,16.10
2022-11-01T07:27:57.294Z,16.30
2022-11-01T07:30:24.396Z,16.30
2022-11-01T07:33:03.250Z,16.20
2022-11-01T07:37:59.580Z,16.10
2022-11-01T07:40:28.058Z,16.30
2022-11-01T07:42:58.214Z,16.40
2022-11-01T07:45:26.796Z,16.60
2022-11-01T07:47:53.901Z,16.60
2022-11-01T07:55:15.490Z,16.80
2022-11-01T08:05:09.625Z,17.20
2022-11-01T08:07:40.271Z,17.20
2022-11-01T08:10:09.980Z,17.10
2022-11-01T08:15:05.321Z,17.10
2022-11-01T08:17:34.127Z,17.10
2022-11-01T08:32:21.776Z,17.30
2022-11-01T08:34:49.083Z,17.30
2022-11-01T08:52:03.092Z,16.90
2022-11-01T08:59:24.747Z,16.40
2022-11-01T09:28:55.581Z,17.40
2022-11-01T09:41:28.791Z,17.50
2022-11-01T09:43:57.908Z,17.60
2022-11-01T09:46:31.168Z,17.70
2022-11-01T09:49:01.840Z,17.60
2022-11-01T09:54:01.433Z,17.10
2022-11-01T09:57:00.695Z,17.40
2022-11-01T09:59:40.318Z,18.80
2022-11-01T10:02:38.994Z,17.70
2022-11-01T10:05:34.922Z,17.80
2022-11-01T10:11:15.163Z,17.30
2022-11-01T10:13:56.707Z,17.60
2022-11-01T10:16:28.703Z,17.00
2022-11-01T10:19:17.514Z,16.90
2022-11-01T10:21:48.846Z,16.70
2022-11-01T10:24:38.085Z,16.80
2022-11-01T10:27:18.593Z,16.60
2022-11-01T10:32:44.096Z,16.60
2022-11-01T10:35:19.281Z,16.50
2022-11-01T10:38:19.386Z,16.60
2022-11-01T10:41:06.684Z,16.60
2022-11-01T10:43:38.338Z,16.60
2022-11-01T10:46:08.656Z,16.60
2022-11-01T10:48:44.394Z,16.60
2022-11-01T10:51:16.305Z,16.70
2022-11-01T10:53:48.144Z,16.80
2022-11-01T10:56:35.872Z,16.60
2022-11-01T10:59:20.585Z,16.50
2022-11-01T11:01:49.578Z,16.50
2022-11-01T11:04:20.204Z,16.50
2022-11-01T11:09:34.799Z,16.60
2022-11-01T11:12:10.660Z,16.70
2022-11-01T11:17:13.129Z,16.80
2022-11-01T11:24:40.095Z,16.80
2022-11-01T11:27:23.589Z,16.70
2022-11-01T11:30:01.185Z,16.60
2022-11-01T11:32:31.809Z,16.70
2022-11-01T11:35:05.312Z,16.80
2022-11-01T11:37:34.103Z,16.90
2022-11-01T11:45:17.550Z,16.70
2022-11-01T11:50:32.369Z,16.90
2022-11-01T11:53:06.533Z,17.60
2022-11-01T11:55:37.920Z,16.90
2022-11-01T11:58:06.614Z,16.90
2022-11-01T12:00:37.610Z,16.90
2022-11-01T12:03:06.886Z,16.90
2022-11-01T12:05:34.822Z,17.00
2022-11-01T12:08:01.851Z,16.90
2022-11-01T12:10:31.588Z,17.00
2022-11-01T12:15:36.948Z,16.90
2022-11-01T12:18:16.130Z,16.90
2022-11-01T12:20:48.127Z,17.00
2022-11-01T12:23:32.835Z,17.10
2022-11-01T12:26:02.996Z,17.10
2022-11-01T12:28:36.720Z,17.10
2022-11-01T12:31:12.709Z,17.30
2022-11-01T12:33:48.803Z,17.10
2022-11-01T12:36:20.317Z,17.10
2022-11-01T12:39:12.835Z,17.20
2022-11-01T12:41:58.216Z,17.30
2022-11-01T12:47:24.207Z,17.40
2022-11-01T12:50:16.906Z,17.30
2022-11-01T12:53:09.941Z,17.30
2022-11-01T12:55:41.907Z,17.30
2022-11-01T12:58:18.903Z,17.30
2022-11-01T13:01:12.683Z,16.60
2022-11-01T13:04:08.076Z,17.00
2022-11-01T13:06:49.038Z,17.10
2022-11-01T13:09:30.416Z,17.10
2022-11-01T13:12:04.630Z,17.10
2022-11-01T13:14:49.186Z,17.10
2022-11-01T13:17:45.743Z,17.20
2022-11-01T13:20:31.490Z,17.20
2022-11-01T13:23:21.880Z,17.20
2022-11-01T13:25:58.061Z,17.20
2022-11-01T13:28:41.815Z,15.20
2022-11-01T13:31:29.078Z,17.00
2022-11-01T13:36:32.156Z,17.00
2022-11-01T13:39:11.325Z,17.00
2022-11-01T13:41:50.671Z,17.00
2022-11-01T13:44:24.639Z,17.00
2022-11-01T13:47:11.147Z,16.90
2022-11-01T13:49:59.442Z,17.00
2022-11-01T13:52:29.070Z,16.80
2022-11-01T13:55:20.905Z,16.80
2022-11-01T14:00:41.895Z,16.80
2022-11-01T14:03:30.970Z,16.80
2022-11-01T14:06:27.394Z,16.80
2022-11-01T14:09:28.198Z,16.80
2022-11-01T14:12:07.660Z,16.80
2022-11-01T14:17:24.284Z,16.70
2022-11-01T14:19:58.574Z,16.20
2022-11-01T14:22:33.160Z,16.60
2022-11-01T14:25:13.785Z,16.60
2022-11-01T14:27:50.451Z,16.50
2022-11-01T14:30:31.712Z,16.50
2022-11-01T14:33:00.431Z,16.50
2022-11-01T14:35:33.856Z,16.40
2022-11-01T14:38:18.553Z,16.40
2022-11-01T14:40:56.659Z,16.40
2022-11-01T14:43:34.528Z,16.30
2022-11-01T14:46:14.162Z,16.20
2022-11-01T14:48:55.513Z,16.10
2022-11-01T14:51:25.262Z,16.10
2022-11-01T14:54:14.568Z,16.00
2022-11-01T14:59:26.722Z,15.90
2022-11-01T15:02:05.484Z,15.80
2022-11-01T15:04:40.032Z,15.70
2022-11-01T15:07:19.777Z,15.70
2022-11-01T15:10:07.522Z,15.60
2022-11-01T15:12:46.611Z,15.50
2022-11-01T15:15:26.234Z,15.40
2022-11-01T15:18:00.902Z,15.60
2022-11-01T15:20:38.230Z,15.30
2022-11-01T15:23:17.498Z,15.10
2022-11-01T15:25:54.605Z,15.00
2022-11-01T15:28:36.561Z,14.90
2022-11-01T15:31:09.786Z,14.80
2022-11-01T15:36:23.532Z,14.90
2022-11-01T15:41:32.281Z,14.40
2022-11-01T15:44:06.001Z,14.30
2022-11-01T15:46:39.300Z,14.20
2022-11-01T15:49:24.639Z,14.00
2022-11-01T15:51:56.796Z,13.90
2022-11-01T15:54:48.099Z,13.80
2022-11-01T15:57:42.380Z,13.60
2022-11-01T16:00:18.300Z,13.50
2022-11-01T16:02:47.533Z,13.40
2022-11-01T16:05:20.342Z,13.30
2022-11-01T16:10:24.278Z,13.10
2022-11-01T16:12:52.338Z,13.00
2022-11-01T16:15:35.991Z,12.80
2022-11-01T16:18:15.839Z,12.80
2022-11-01T16:23:30.463Z,12.80
2022-11-01T16:26:03.877Z,12.60
2022-11-01T16:28:39.913Z,12.70
2022-11-01T16:31:26.725Z,12.60
2022-11-01T16:38:53.426Z,12.60
2022-11-01T16:41:26.077Z,12.60
2022-11-01T16:43:55.023Z,12.60
2022-11-01T16:46:24.183Z,12.50
2022-11-01T16:48:58.445Z,12.70
2022-11-01T16:51:29.241Z,12.70
2022-11-01T16:53:57.785Z,12.50
2022-11-01T16:56:38.133Z,12.40
2022-11-01T16:59:29.644Z,12.20
2022-11-01T17:01:58.513Z,12.20
2022-11-01T17:04:29.510Z,12.20
2022-11-01T17:09:32.501Z,12.10
2022-11-01T17:19:32.150Z,11.50
2022-11-01T17:22:06.861Z,11.80
2022-11-01T17:27:05.156Z,11.90
2022-11-01T17:29:32.634Z,11.70
2022-11-01T17:32:01.023Z,11.80
2022-11-01T17:39:28.908Z,11.70
2022-11-01T18:09:24.756Z,11.30
2022-11-01T18:12:05.477Z,11.30
2022-11-01T18:15:04.587Z,11.30
2022-11-01T18:17:53.930Z,11.30
2022-11-01T18:20:51.724Z,11.30
2022-11-01T18:23:22.185Z,11.30
2022-11-01T18:25:50.900Z,11.40
2022-11-01T18:31:10.017Z,11.50
2022-11-01T18:34:00.363Z,11.60
2022-11-01T18:36:52.331Z,11.70
2022-11-01T18:41:48.284Z,11.90
2022-11-01T18:46:52.538Z,11.50
2022-11-01T18:54:23.257Z,11.70
2022-11-01T18:56:58.215Z,11.70
2022-11-01T18:59:32.086Z,11.80
2022-11-01T19:02:11.484Z,11.70
2022-11-01T19:04:42.202Z,11.60
2022-11-01T19:07:12.660Z,11.40
2022-11-01T19:09:48.684Z,11.40
2022-11-01T19:12:29.455Z,11.20
2022-11-01T19:15:03.720Z,11.40
2022-11-01T19:17:37.345Z,11.30
2022-11-01T19:20:27.691Z,11.30
2022-11-01T19:23:00.458Z,11.30
2022-11-01T19:25:32.491Z,11.20
2022-11-01T19:28:02.861Z,11.20
2022-11-01T19:30:33.841Z,11.20
2022-11-01T19:33:03.422Z,11.10
2022-11-01T19:40:32.373Z,11.30
2022-11-01T19:43:09.202Z,11.30
2022-11-01T19:45:41.234Z,11.50
2022-11-01T19:48:11.949Z,11.60
2022-11-01T19:50:43.705Z,11.70
2022-11-01T19:53:32.558Z,11.80
2022-11-01T19:56:20.734Z,11.80
2022-11-01T19:58:58.637Z,11.80
2022-11-01T20:03:58.065Z,11.60
2022-11-01T20:06:32.777Z,11.50
2022-11-01T20:09:19.079Z,11.60
2022-11-01T20:14:13.762Z,11.50
2022-11-01T20:21:43.745Z,12.40
2022-11-01T20:31:33.080Z,11.80
2022-11-01T20:41:22.710Z,11.80
2022-11-01T21:01:14.799Z,11.50
2022-11-01T21:06:16.930Z,11.50
2022-11-01T21:08:47.160Z,11.60
2022-11-01T21:11:43.747Z,11.50
2022-11-01T21:14:16.714Z,11.40
2022-11-01T21:19:20.474Z,11.30
2022-11-01T21:21:50.462Z,11.40
2022-11-01T21:24:28.083Z,11.30
2022-11-01T21:27:13.447Z,11.40
2022-11-01T21:29:46.119Z,11.30
2022-11-01T21:32:29.736Z,11.20
2022-11-01T21:34:57.977Z,11.20
2022-11-01T21:37:28.461Z,11.20
2022-11-01T21:40:04.291Z,11.30
2022-11-01T21:42:36.390Z,11.20
2022-11-01T21:45:29.892Z,11.30
2022-11-01T21:48:18.667Z,11.30
2022-11-01T22:05:35.282Z,11.20
2022-11-01T22:30:09.868Z,11.50
2022-11-01T22:37:35.234Z,11.30
2022-11-01T22:40:12.562Z,11.20
2022-11-01T22:42:40.758Z,12.20
2022-11-01T22:45:18.460Z,11.20
2022-11-01T22:47:46.831Z,11.10
2022-11-01T22:50:20.612Z,11.30
2022-11-01T22:52:48.750Z,11.20
2022-11-01T22:55:21.827Z,11.30
2022-11-01T22:58:22.477Z,11.40
2022-11-01T23:00:50.311Z,11.40
2022-11-01T23:03:39.516Z,11.40
2022-11-01T23:06:35.864Z,11.40
2022-11-01T23:09:15.561Z,11.40
2022-11-01T23:12:12.578Z,11.40
2022-11-01T23:14:45.510Z,11.40
2022-11-01T23:17:20.393Z,11.40
2022-11-01T23:22:18.646Z,11.30
2022-11-01T23:29:41.826Z,11.30
2022-11-01T23:39:34.269Z,11.30
2022-11-01T23:44:31.942Z,11.30
2022-11-01T23:47:04.659Z,11.60
2022-11-01T23:49:33.663Z,11.40
